Time;durP1;ratioP1;P1;durP2;ratioP2;P2;SDS_P1;SDS_P2;PMS_P1;PMS_P2;Temp;Humidity;BMP_temperature;BMP_pressure;BME280_temperature;BME280_humidity;BME280_pressure;Samples;Min_cycle;Max_cycle;Signal;HPM_P1;HPM_P2
2021/05/08 00:02:11;;;;;;;5.07;3.13;;;;;;;15.71;63.95;100056.16;5038119;28;20022;-63
2021/05/08 00:04:37;;;;;;;5.38;2.90;;;;;;;15.68;63.91;100054.06;5030171;28;20040;-63
2021/05/08 00:07:02;;;;;;;5.25;2.97;;;;;;;15.65;64.09;100050.03;5038538;28;20025;-63
2021/05/08 00:09:28;;;;;;;4.07;2.88;;;;;;;15.63;64.03;100049.53;5038456;28;20021;-63
2021/05/08 00:11:55;;;;;;;5.95;3.33;;;;;;;15.62;64.13;100058.09;5038453;28;20620;-63
2021/05/08 00:14:22;;;;;;;4.93;3.20;;;;;;;15.58;64.25;100047.75;5026912;28;20482;-63
2021/05/08 00:16:48;;;;;;;5.25;3.33;;;;;;;15.56;64.21;100050.00;5037885;28;20068;-63
2021/05/08 00:19:13;;;;;;;3.70;3.30;;;;;;;15.53;64.23;100044.34;5030615;28;20022;-63
2021/05/08 00:21:39;;;;;;;4.03;3.15;;;;;;;15.47;64.09;100029.94;5038324;28;20794;-64
2021/05/08 00:24:05;;;;;;;5.32;3.20;;;;;;;15.32;64.31;100013.91;5030846;28;20494;-63
2021/05/08 00:26:30;;;;;;;4.05;3.65;;;;;;;15.47;64.52;100038.16;5036718;28;20033;-63
2021/05/08 00:28:57;;;;;;;4.15;3.30;;;;;;;15.44;64.35;100030.59;5041994;28;20024;-63
2021/05/08 00:31:22;;;;;;;6.45;3.55;;;;;;;15.38;64.49;100027.19;5042518;28;20040;-64
2021/05/08 00:33:48;;;;;;;5.43;3.70;;;;;;;15.39;64.50;100033.47;5037006;28;20082;-63
2021/05/08 00:36:14;;;;;;;4.38;3.40;;;;;;;15.37;64.49;100033.81;5038166;28;20026;-63
2021/05/08 00:38:39;;;;;;;4.57;3.47;;;;;;;15.34;64.62;100036.38;5046613;28;20021;-63
2021/05/08 00:41:05;;;;;;;7.07;3.60;;;;;;;15.32;64.65;100038.63;5037307;28;20049;-64
2021/05/08 00:43:31;;;;;;;5.53;3.80;;;;;;;15.29;64.82;100036.53;5037626;28;20033;-63
2021/05/08 00:45:56;;;;;;;5.13;3.92;;;;;;;15.24;64.75;100030.06;5031017;28;20037;-63
2021/05/08 00:48:22;;;;;;;4.95;3.53;;;;;;;15.22;64.96;100024.06;5036962;28;20029;-63
2021/05/08 00:50:50;;;;;;;4.72;3.65;;;;;;;15.21;64.87;100016.94;5031439;28;20021;-63
2021/05/08 00:53:16;;;;;;;5.25;4.32;;;;;;;15.09;64.97;100000.28;5029658;28;20017;-63
2021/05/08 00:55:41;;;;;;;8.07;4.55;;;;;;;15.17;64.98;100005.00;5037741;28;20109;-63
2021/05/08 00:58:07;;;;;;;5.85;3.88;;;;;;;15.15;65.00;100018.22;5037681;28;20026;-63
2021/05/08 01:00:34;;;;;;;5.30;3.90;;;;;;;15.14;65.19;100026.78;5030858;28;20056;-63
2021/05/08 01:03:00;;;;;;;6.15;4.25;;;;;;;15.11;65.25;100022.75;5037584;28;20548;-64
2021/05/08 01:05:27;;;;;;;5.68;3.95;;;;;;;15.05;65.48;100022.09;5037605;28;20029;-63
2021/05/08 01:07:54;;;;;;;4.78;3.90;;;;;;;15.06;65.31;100020.13;5030326;28;20033;-64
2021/05/08 01:10:19;;;;;;;6.05;3.95;;;;;;;14.98;65.38;100009.94;5032089;28;20089;-63
2021/05/08 01:12:45;;;;;;;7.85;4.03;;;;;;;14.88;65.38;99997.31;5037369;28;20053;-63
2021/05/08 01:15:13;;;;;;;6.32;3.97;;;;;;;15.00;65.56;100010.44;5037252;28;20040;-63
2021/05/08 01:17:39;;;;;;;6.47;3.88;;;;;;;14.98;65.30;100004.44;5039733;28;20025;-63
2021/05/08 01:20:06;;;;;;;6.82;4.22;;;;;;;14.93;65.34;100008.13;5037331;28;20021;-63
2021/05/08 01:22:31;;;;;;;8.15;4.72;;;;;;;14.90;65.57;99995.84;5033620;28;20087;-63
2021/05/08 01:24:57;;;;;;;7.38;4.47;;;;;;;14.90;65.40;99995.84;5032069;28;20116;-63
2021/05/08 01:27:22;;;;;;;7.20;4.47;;;;;;;14.90;65.55;99995.84;5037696;28;20036;-63
2021/05/08 01:29:48;;;;;;;6.13;4.60;;;;;;;14.89;65.52;99994.25;5026004;28;20022;-63
2021/05/08 01:32:13;;;;;;;7.07;4.90;;;;;;;14.87;65.67;99991.03;5036751;28;20029;-63
2021/05/08 01:34:38;;;;;;;9.07;4.78;;;;;;;14.76;65.67;99978.69;5019019;28;20076;-63
2021/05/08 01:37:04;;;;;;;8.15;5.50;;;;;;;14.82;65.88;99973.88;5036268;28;20025;-63
2021/05/08 01:39:30;;;;;;;8.07;4.80;;;;;;;14.80;65.80;99968.69;5030810;28;20041;-63
2021/05/08 01:41:56;;;;;;;5.25;4.70;;;;;;;14.79;65.74;99972.59;5053628;28;20406;-63
2021/05/08 01:44:22;;;;;;;6.25;5.28;;;;;;;14.78;65.96;99971.75;5056540;28;20450;-63
2021/05/08 01:46:48;;;;;;;6.20;5.07;;;;;;;14.76;65.92;99965.78;5056263;28;20373;-63
2021/05/08 01:49:13;;;;;;;8.00;5.05;;;;;;;14.74;65.97;99962.56;5056669;28;20459;-63
2021/05/08 01:51:39;;;;;;;8.23;5.18;;;;;;;14.73;65.96;99960.13;5055430;28;20032;-63
2021/05/08 01:54:05;;;;;;;9.63;4.88;;;;;;;14.62;66.02;99951.34;5054487;28;20017;-63
2021/05/08 01:56:30;;;;;;;5.22;4.70;;;;;;;14.64;66.07;99952.63;5056576;28;20028;-63
2021/05/08 01:58:56;;;;;;;7.10;4.93;;;;;;;14.69;66.20;99961.88;5056508;28;20032;-63
2021/05/08 02:01:22;;;;;;;7.45;5.50;;;;;;;14.67;66.15;99958.66;5055004;28;20125;-63
2021/05/08 02:03:47;;;;;;;9.90;5.10;;;;;;;14.66;66.05;99959.72;5055619;28;20052;-64
2021/05/08 02:06:13;;;;;;;7.72;5.13;;;;;;;14.53;66.10;99934.03;5054906;28;20393;-63
2021/05/08 02:08:39;;;;;;;6.35;5.10;;;;;;;14.62;66.20;99957.66;5056498;28;20052;-63
2021/05/08 02:11:04;;;;;;;8.15;5.35;;;;;;;14.60;66.17;99950.84;5055894;28;20021;-63
2021/05/08 02:13:30;;;;;;;6.53;5.43;;;;;;;14.59;66.32;99950.03;5053942;28;20036;-63
2021/05/08 02:15:56;;;;;;;6.82;5.40;;;;;;;14.51;66.21;99939.84;5054855;28;20358;-63
2021/05/08 02:18:21;;;;;;;9.70;5.03;;;;;;;14.53;66.28;99945.81;5054897;28;20021;-63
2021/05/08 02:20:47;;;;;;;6.35;4.95;;;;;;;14.53;66.39;99951.31;5055315;28;20497;-63
2021/05/08 02:23:15;;;;;;;8.95;5.28;;;;;;;14.54;66.31;99943.88;5052515;28;20014;-63
2021/05/08 02:25:40;;;;;;;6.65;4.80;;;;;;;14.52;66.45;99951.59;5055817;28;20047;-63
2021/05/08 02:28:06;;;;;;;8.38;4.88;;;;;;;14.46;66.27;99942.72;5055028;28;20127;-63
2021/05/08 02:30:33;;;;;;;9.05;5.00;;;;;;;14.48;66.30;99944.03;5049766;28;20028;-63
2021/05/08 02:33:00;;;;;;;6.78;4.57;;;;;;;14.48;66.48;99940.44;5045597;28;20040;-63
2021/05/08 02:35:27;;;;;;;7.10;4.22;;;;;;;14.44;66.47;99937.53;5055968;28;20021;-63
2021/05/08 02:37:53;;;;;;;9.77;4.80;;;;;;;14.44;66.33;99936.75;5056547;28;20029;-63
2021/05/08 02:40:23;;;;;;;6.07;4.80;;;;;;;14.41;66.41;99931.88;5046549;28;20043;-63
2021/05/08 02:42:49;;;;;;;6.28;4.38;;;;;;;14.37;66.26;99931.69;5054349;28;20035;-63
2021/05/08 02:45:16;;;;;;;6.60;4.60;;;;;;;14.34;66.35;99937.81;5052654;28;20104;-63
2021/05/08 02:47:44;;;;;;;9.60;4.93;;;;;;;14.31;66.56;99924.75;5053526;28;20495;-63
2021/05/08 02:50:11;;;;;;;8.40;5.30;;;;;;;14.31;66.56;99935.72;5052334;28;20033;-63
2021/05/08 02:52:37;;;;;;;7.03;5.07;;;;;;;14.28;66.63;99937.16;5055480;28;20021;-63
2021/05/08 02:55:05;;;;;;;6.53;4.85;;;;;;;14.26;66.71;99936.66;5055624;28;20052;-63
2021/05/08 02:57:30;;;;;;;8.70;5.20;;;;;;;14.13;66.59;99913.69;5050946;28;20017;-63
2021/05/08 02:59:55;;;;;;;6.75;4.82;;;;;;;14.24;66.64;99935.34;5049570;28;20033;-63
2021/05/08 03:02:21;;;;;;;8.50;4.90;;;;;;;14.04;66.53;99896.38;5051290;28;20081;-63
2021/05/08 03:04:46;;;;;;;7.88;5.03;;;;;;;14.21;66.74;99928.56;5054010;28;20033;-63
2021/05/08 03:07:12;;;;;;;8.15;5.38;;;;;;;14.19;66.66;99919.84;5055815;28;20029;-63
2021/05/08 03:09:37;;;;;;;6.38;4.63;;;;;;;14.05;66.70;99900.72;5046507;28;20036;-63
2021/05/08 03:12:04;;;;;;;7.10;5.15;;;;;;;14.16;66.70;99915.81;5055767;28;20502;-63
2021/05/08 03:14:30;;;;;;;7.38;5.00;;;;;;;14.12;66.86;99914.00;5052158;28;20017;-63
2021/05/08 03:16:57;;;;;;;6.22;4.85;;;;;;;14.12;66.87;99905.78;5054483;28;20027;-64
2021/05/08 03:19:22;;;;;;;7.68;4.90;;;;;;;14.07;66.84;99894.94;5054317;28;20581;-63
2021/05/08 03:21:47;;;;;;;6.32;5.05;;;;;;;14.08;66.81;99910.25;5055702;28;20473;-63
2021/05/08 03:24:13;;;;;;;7.15;5.13;;;;;;;13.66;66.68;99847.47;5046698;28;20025;-63
2021/05/08 03:26:38;;;;;;;7.72;5.15;;;;;;;13.90;66.91;99887.44;5055857;28;20021;-63
2021/05/08 03:29:04;;;;;;;7.53;5.32;;;;;;;14.00;66.85;99906.34;5056294;28;20043;-63
2021/05/08 03:31:30;;;;;;;5.40;4.50;;;;;;;13.98;66.93;99900.38;5059286;28;20040;-63
2021/05/08 03:33:56;;;;;;;8.68;4.55;;;;;;;13.97;66.79;99907.78;5059600;28;20017;-63
2021/05/08 03:36:22;;;;;;;6.35;4.40;;;;;;;13.96;66.86;99905.34;5055936;28;20036;-64
2021/05/08 03:38:47;;;;;;;8.45;4.43;;;;;;;13.93;66.92;99905.97;5059495;28;20394;-63
2021/05/08 03:41:13;;;;;;;7.15;4.53;;;;;;;13.92;66.82;99907.91;5058788;28;20071;-63
2021/05/08 03:43:38;;;;;;;7.13;4.65;;;;;;;13.90;66.82;99901.94;5058533;28;20033;-63
2021/05/08 03:46:04;;;;;;;6.35;4.50;;;;;;;13.89;66.90;99896.75;5058968;28;20076;-63
2021/05/08 03:48:30;;;;;;;8.27;4.85;;;;;;;13.87;66.74;99909.97;5051656;28;20029;-63
2021/05/08 03:50:55;;;;;;;8.27;4.53;;;;;;;13.84;66.82;99901.25;5036094;28;20040;-63
2021/05/08 03:53:21;;;;;;;6.47;5.00;;;;;;;13.81;66.68;99907.38;5051191;28;20385;-64
2021/05/08 03:55:49;;;;;;;5.53;4.80;;;;;;;13.80;66.79;99910.44;5056200;28;20029;-63
2021/05/08 03:58:15;;;;;;;10.18;4.93;;;;;;;13.62;66.82;99882.06;5057695;28;20021;-63
2021/05/08 04:00:40;;;;;;;6.53;5.03;;;;;;;13.73;66.98;99897.16;5057225;28;20119;-63
2021/05/08 04:03:06;;;;;;;7.72;5.47;;;;;;;13.74;66.93;99901.50;5057220;28;20029;-63
2021/05/08 04:05:31;;;;;;;10.15;5.78;;;;;;;13.71;66.98;99899.38;5047765;28;20053;-63
2021/05/08 04:07:57;;;;;;;8.57;5.90;;;;;;;13.71;67.16;99902.13;5057277;28;20447;-63
2021/05/08 04:10:23;;;;;;;8.77;5.07;;;;;;;13.71;67.12;99909.56;5053116;28;20040;-63
2021/05/08 04:12:48;;;;;;;8.60;5.30;;;;;;;13.68;67.11;99898.09;5058201;28;20025;-63
2021/05/08 04:15:13;;;;;;;8.82;5.38;;;;;;;13.67;66.92;99901.16;5050492;28;20039;-63
2021/05/08 04:17:39;;;;;;;6.88;5.05;;;;;;;13.64;67.15;99905.28;5058268;28;20472;-63
2021/05/08 04:20:05;;;;;;;7.18;5.50;;;;;;;13.62;67.29;99899.34;5057062;28;20053;-63
2021/05/08 04:22:31;;;;;;;6.47;4.97;;;;;;;13.17;67.31;99833.56;5058048;28;20131;-63
2021/05/08 04:24:56;;;;;;;7.82;5.05;;;;;;;13.59;67.20;99910.13;5055691;28;20029;-63
2021/05/08 04:27:22;;;;;;;5.72;4.70;;;;;;;13.53;67.69;99906.69;5058851;28;20032;-63
2021/05/08 04:29:47;;;;;;;8.13;5.28;;;;;;;13.51;67.22;99900.69;5050167;28;20036;-63
2021/05/08 04:32:13;;;;;;;7.25;5.00;;;;;;;13.49;67.42;99905.66;5048604;28;20029;-63
2021/05/08 04:34:38;;;;;;;6.60;5.30;;;;;;;13.44;67.44;99909.34;5057579;28;20028;-63
2021/05/08 04:37:03;;;;;;;6.80;5.43;;;;;;;13.35;67.50;99889.25;5055496;28;20021;-64
2021/05/08 04:39:29;;;;;;;5.75;4.97;;;;;;;13.37;67.20;99909.75;5060149;28;20056;-64
2021/05/08 04:41:54;;;;;;;5.82;4.68;;;;;;;13.36;67.46;99904.56;5050942;28;20110;-63
2021/05/08 04:44:20;;;;;;;7.78;5.47;;;;;;;13.37;67.70;99911.66;5037595;28;20433;-63
2021/05/08 04:46:47;;;;;;;7.25;5.15;;;;;;;13.36;67.49;99910.88;5037336;28;20087;-63
2021/05/08 04:49:13;;;;;;;7.35;4.85;;;;;;;13.29;67.57;99902.28;5035093;28;20021;-63
2021/05/08 04:51:38;;;;;;;10.20;5.68;;;;;;;13.32;67.53;99909.84;5036008;28;20032;-63
2021/05/08 04:54:04;;;;;;;6.72;4.85;;;;;;;13.16;67.42;99890.25;5037645;28;20021;-63
2021/05/08 04:56:29;;;;;;;8.52;5.45;;;;;;;13.32;67.59;99914.53;5037514;28;20029;-63
2021/05/08 04:58:54;;;;;;;6.90;4.93;;;;;;;13.30;67.52;99912.09;5024527;28;20033;-63
2021/05/08 05:01:20;;;;;;;11.35;5.32;;;;;;;13.25;67.57;99906.72;5042175;28;20083;-63
2021/05/08 05:03:45;;;;;;;8.57;4.85;;;;;;;13.30;67.51;99914.03;5036837;28;20025;-63
2021/05/08 05:06:11;;;;;;;5.32;4.57;;;;;;;13.31;67.60;99916.44;5037452;28;20059;-63
2021/05/08 05:08:36;;;;;;;7.85;4.68;;;;;;;13.24;67.69;99905.09;5038062;28;20025;-63
2021/05/08 05:11:02;;;;;;;5.88;4.72;;;;;;;13.22;67.75;99901.88;5036657;28;20025;-63
2021/05/08 05:13:27;;;;;;;6.65;5.00;;;;;;;13.16;67.54;99884.75;5037774;28;20550;-63
2021/05/08 05:15:52;;;;;;;6.38;5.32;;;;;;;13.22;67.88;99897.22;5037254;28;20025;-63
2021/05/08 05:18:18;;;;;;;7.72;5.05;;;;;;;13.28;67.77;99900.66;5040786;28;20021;-63
2021/05/08 05:20:45;;;;;;;6.85;5.07;;;;;;;13.32;67.84;99903.56;5029868;28;20040;-64
2021/05/08 05:23:11;;;;;;;9.23;5.50;;;;;;;13.28;67.78;99895.16;5031460;28;20025;-64
2021/05/08 05:25:37;;;;;;;5.95;4.95;;;;;;;13.34;67.82;99915.03;5036941;28;20033;-63
2021/05/08 05:28:03;;;;;;;7.85;5.32;;;;;;;13.36;67.49;99912.78;5037111;28;20052;-63
2021/05/08 05:30:28;;;;;;;8.55;5.25;;;;;;;13.22;67.79;99894.47;5036430;28;20021;-63
2021/05/08 05:32:54;;;;;;;5.63;4.70;;;;;;;13.32;67.66;99907.13;5036944;28;20018;-63
2021/05/08 05:35:20;;;;;;;5.82;5.10;;;;;;;13.38;67.58;99913.28;5036494;28;20163;-63
2021/05/08 05:37:45;;;;;;;8.27;5.10;;;;;;;13.38;67.66;99914.16;5032368;28;20037;-63
2021/05/08 05:40:11;;;;;;;10.77;5.15;;;;;;;13.37;67.49;99914.41;5037301;28;20087;-63
2021/05/08 05:42:38;;;;;;;9.38;5.40;;;;;;;13.40;67.56;99915.72;5037333;28;20026;-64
2021/05/08 05:45:04;;;;;;;7.53;4.38;;;;;;;13.36;67.41;99908.13;5036426;28;20039;-64
2021/05/08 05:47:32;;;;;;;8.75;4.50;;;;;;;13.43;67.44;99912.38;5036573;28;20037;-64
2021/05/08 05:49:57;;;;;;;8.07;5.13;;;;;;;13.44;67.52;99917.56;5036408;28;20025;-63
2021/05/08 05:52:23;;;;;;;5.55;4.65;;;;;;;13.45;67.55;99907.41;5037026;28;20032;-63
2021/05/08 05:54:51;;;;;;;6.07;4.60;;;;;;;13.45;67.56;99901.94;5036693;28;20109;-63
2021/05/08 05:57:17;;;;;;;6.07;3.95;;;;;;;13.42;67.73;99892.44;5036501;28;20087;-63
2021/05/08 05:59:43;;;;;;;6.05;3.58;;;;;;;13.48;67.70;99896.66;5036734;28;20025;-64
2021/05/08 06:02:10;;;;;;;5.50;3.70;;;;;;;13.50;67.82;99902.63;5035877;28;20022;-63
2021/05/08 06:04:35;;;;;;;6.18;3.92;;;;;;;13.52;67.52;99897.63;5035360;28;20022;-63
2021/05/08 06:07:01;;;;;;;8.10;3.50;;;;;;;13.54;67.69;99891.88;5036036;28;20128;-64
2021/05/08 06:09:27;;;;;;;10.77;3.58;;;;;;;13.57;67.65;99893.16;5036654;28;20052;-63
2021/05/08 06:11:57;;;;;;;5.43;2.80;;;;;;;13.62;67.47;99893.03;5036002;28;20052;-63
2021/05/08 06:14:27;;;;;;;7.25;2.90;;;;;;;13.67;67.43;99890.19;5036612;28;20033;-63
2021/05/08 06:16:55;;;;;;;5.22;2.47;;;;;;;13.69;67.40;99887.94;5033940;28;20382;-63
2021/05/08 06:19:20;;;;;;;4.78;2.55;;;;;;;13.74;67.06;99889.72;5035971;28;20026;-63
2021/05/08 06:21:46;;;;;;;7.30;3.10;;;;;;;13.77;66.95;99880.91;5031771;28;20083;-63
2021/05/08 06:24:11;;;;;;;9.93;2.70;;;;;;;13.81;66.85;99884.63;5035993;28;20021;-63
2021/05/08 06:26:37;;;;;;;6.68;2.33;;;;;;;13.84;66.99;99889.47;5036193;28;20025;-63
2021/05/08 06:29:04;;;;;;;8.48;2.47;;;;;;;13.88;67.03;99886.91;5035623;28;20363;-63
2021/05/08 06:31:29;;;;;;;4.38;2.30;;;;;;;13.83;66.98;99885.94;5036250;28;20079;-63
2021/05/08 06:33:55;;;;;;;3.00;2.30;;;;;;;13.95;66.94;99887.28;5035770;28;20021;-63
2021/05/08 06:36:21;;;;;;;4.30;2.50;;;;;;;13.97;66.75;99893.28;5035494;28;20033;-63
2021/05/08 06:38:46;;;;;;;3.80;2.13;;;;;;;13.91;66.74;99872.59;5044650;28;20075;-62
2021/05/08 06:41:12;;;;;;;4.65;2.20;;;;;;;13.97;66.74;99885.03;5034852;28;20049;-62
2021/05/08 06:43:37;;;;;;;4.05;2.20;;;;;;;14.11;66.60;99895.94;5028470;28;20029;-61
2021/05/08 06:46:02;;;;;;;4.63;2.00;;;;;;;14.16;66.66;99902.09;5034379;28;20036;-62
2021/05/08 06:48:28;;;;;;;5.30;2.00;;;;;;;14.20;66.55;99895.97;5029022;28;20072;-62
2021/05/08 06:50:53;;;;;;;4.78;2.08;;;;;;;14.25;66.53;99895.84;5031098;28;20204;-63
2021/05/08 06:53:19;;;;;;;4.95;3.97;;;;;;;14.29;66.58;99888.59;5026455;28;20017;-62
2021/05/08 06:55:44;;;;;;;26.77;15.65;;;;;;;14.31;66.54;99887.13;5035987;28;20017;-62
2021/05/08 06:58:09;;;;;;;5.38;2.80;;;;;;;14.30;66.62;99874.56;5030618;28;20030;-62
2021/05/08 07:00:35;;;;;;;12.57;8.57;;;;;;;14.36;66.74;99871.69;5035691;28;20464;-62
2021/05/08 07:03:00;;;;;;;3.78;2.80;;;;;;;14.46;66.55;99876.88;5035307;28;20034;-62
2021/05/08 07:05:26;;;;;;;6.50;2.53;;;;;;;14.42;66.79;99860.22;5035044;28;20401;-62
2021/05/08 07:08:02;;;;;;;5.03;2.17;;;;;;;14.57;66.78;99869.97;5036157;28;20100;-63
2021/05/08 07:10:27;;;;;;;4.78;2.25;;;;;;;14.61;66.89;99868.22;5032817;28;20024;-62
2021/05/08 07:12:53;;;;;;;3.10;2.05;;;;;;;14.68;66.79;99862.28;5036483;28;20096;-63
2021/05/08 07:15:18;;;;;;;4.30;1.98;;;;;;;14.73;66.88;99864.88;5035856;28;20033;-62
2021/05/08 07:17:44;;;;;;;3.63;2.10;;;;;;;14.81;67.10;99865.22;5034893;28;20076;-62
2021/05/08 07:20:09;;;;;;;3.67;1.73;;;;;;;14.86;67.05;99857.66;5036808;28;20021;-63
2021/05/08 07:22:35;;;;;;;3.83;2.25;;;;;;;14.94;67.22;99859.59;5043672;28;20521;-63
2021/05/08 07:25:01;;;;;;;4.45;1.95;;;;;;;15.01;67.12;99855.56;5032052;28;20032;-63
2021/05/08 07:27:26;;;;;;;3.22;1.80;;;;;;;15.07;67.42;99859.75;5035872;28;20057;-63
2021/05/08 07:29:51;;;;;;;4.20;2.08;;;;;;;15.07;67.29;99848.78;5018133;28;20030;-62
2021/05/08 07:32:17;;;;;;;3.45;2.00;;;;;;;15.20;67.63;99850.56;5036099;28;20018;-62
2021/05/08 07:34:42;;;;;;;3.45;2.05;;;;;;;15.27;67.70;99833.59;5035357;28;20060;-63
2021/05/08 07:37:08;;;;;;;3.58;2.00;;;;;;;15.35;67.67;99840.22;5038709;28;20021;-63
2021/05/08 07:39:33;;;;;;;3.65;2.28;;;;;;;15.37;67.84;99833.25;5030691;28;20495;-63
2021/05/08 07:41:59;;;;;;;3.45;1.80;;;;;;;15.51;67.88;99837.75;5044465;28;20128;-63
2021/05/08 07:44:24;;;;;;;4.18;1.65;;;;;;;15.60;67.97;99846.00;5042977;28;20032;-62
2021/05/08 07:46:50;;;;;;;6.07;2.10;;;;;;;15.66;68.33;99841.94;5054061;28;20036;-63
2021/05/08 07:49:15;;;;;;;10.40;6.70;;;;;;;15.73;68.16;99829.34;5055295;28;20681;-63
2021/05/08 07:51:41;;;;;;;4.18;1.83;;;;;;;15.81;68.17;99830.44;5051331;28;20032;-63
2021/05/08 07:54:06;;;;;;;4.40;1.98;;;;;;;15.89;68.43;99826.09;5043152;28;20032;-63
2021/05/08 07:56:34;;;;;;;5.28;2.03;;;;;;;15.98;68.42;99832.38;5053766;28;20536;-63
2021/05/08 07:59:00;;;;;;;4.18;1.85;;;;;;;16.07;68.59;99823.28;5055440;28;20033;-63
2021/05/08 08:01:25;;;;;;;5.05;2.10;;;;;;;16.17;68.47;99811.88;5035935;28;20181;-63
2021/05/08 08:03:51;;;;;;;5.20;2.00;;;;;;;16.26;68.33;99800.84;5053789;28;20056;-63
2021/05/08 08:06:16;;;;;;;5.40;2.00;;;;;;;16.33;68.08;99801.94;5053815;28;20117;-63
2021/05/08 08:08:41;;;;;;;2.03;1.17;;;;;;;16.43;67.67;99809.03;5059060;28;20029;-63
2021/05/08 08:11:07;;;;;;;4.18;1.23;;;;;;;16.52;67.73;99803.47;5055380;28;20033;-63
2021/05/08 08:13:32;;;;;;;2.63;1.42;;;;;;;16.67;67.46;99808.38;5057848;28;20394;-63
2021/05/08 08:15:57;;;;;;;5.07;1.40;;;;;;;16.75;66.68;99803.97;5057423;28;20028;-63
2021/05/08 08:18:25;;;;;;;5.35;1.67;;;;;;;16.83;66.53;99805.84;5039628;28;20028;-63
2021/05/08 08:20:51;;;;;;;4.68;1.30;;;;;;;16.84;66.39;99792.88;5055875;28;20120;-63
2021/05/08 08:23:16;;;;;;;8.63;1.20;;;;;;;16.97;65.90;99804.78;5055192;28;20108;-63
2021/05/08 08:25:42;;;;;;;4.88;1.40;;;;;;;16.93;65.29;99773.56;5045231;28;20405;-63
2021/05/08 08:28:07;;;;;;;3.85;1.23;;;;;;;17.17;65.13;99810.63;5057689;28;20492;-63
2021/05/08 08:30:33;;;;;;;2.88;1.20;;;;;;;16.97;64.64;99767.06;5056966;28;20059;-63
2021/05/08 08:32:58;;;;;;;3.40;1.23;;;;;;;17.29;64.63;99791.38;5057498;28;20023;-63
2021/05/08 08:35:24;;;;;;;3.97;1.40;;;;;;;17.36;64.21;99786.13;5057033;28;20031;-63
2021/05/08 08:37:49;;;;;;;4.05;1.20;;;;;;;17.44;64.24;99804.53;5065877;28;20040;-63
2021/05/08 08:40:15;;;;;;;2.20;1.20;;;;;;;17.49;63.73;99798.00;5059024;28;20048;-63
2021/05/08 08:42:41;;;;;;;4.88;1.60;;;;;;;17.54;63.01;99789.53;5056542;28;20040;-63
2021/05/08 08:45:06;;;;;;;2.08;1.20;;;;;;;17.59;63.12;99783.78;5057924;28;20467;-63
2021/05/08 08:47:32;;;;;;;4.72;1.20;;;;;;;17.55;62.87;99773.78;5057927;28;20508;-63
2021/05/08 08:50:10;;;;;;;3.38;1.30;;;;;;;17.71;62.59;99787.72;5057611;28;20039;-63
2021/05/08 08:52:35;;;;;;;2.92;1.10;;;;;;;17.64;62.02;99762.69;5055730;28;20025;-63
2021/05/08 08:55:02;;;;;;;2.80;1.10;;;;;;;17.66;61.65;99752.09;5062586;28;20025;-64
2021/05/08 08:57:37;;;;;;;4.47;0.90;;;;;;;17.80;61.49;99773.81;5047795;28;20021;-63
2021/05/08 09:00:10;;;;;;;2.78;1.20;;;;;;;17.91;60.96;99767.53;5051580;28;20078;-64
2021/05/08 09:02:36;;;;;;;7.07;2.50;;;;;;;17.96;60.76;99774.78;5053580;28;20037;-63
2021/05/08 09:05:02;;;;;;;4.43;1.45;;;;;;;18.00;60.51;99770.22;5056734;28;20036;-63
2021/05/08 09:07:30;;;;;;;10.40;1.30;;;;;;;18.05;60.19;99767.22;5057265;28;20105;-63
2021/05/08 09:09:56;;;;;;;5.15;1.20;;;;;;;18.06;59.87;99755.03;5054224;28;20036;-63
2021/05/08 09:12:26;;;;;;;4.50;1.40;;;;;;;18.15;59.44;99776.19;5048624;28;20059;-63
2021/05/08 09:14:52;;;;;;;5.57;1.20;;;;;;;18.18;59.12;99757.00;5053962;28;20036;-63
2021/05/08 09:17:26;;;;;;;5.38;1.35;;;;;;;18.25;58.92;99748.13;5056471;28;20021;-63
2021/05/08 09:20:00;;;;;;;4.32;1.27;;;;;;;18.30;59.10;99750.66;5057397;28;20029;-63
2021/05/08 09:22:34;;;;;;;6.20;1.17;;;;;;;18.34;59.29;99751.59;5056716;28;20035;-63
2021/05/08 09:25:14;;;;;;;4.25;1.20;;;;;;;18.40;59.35;99750.19;5045156;28;20122;-63
2021/05/08 09:27:51;;;;;;;2.30;1.10;;;;;;;18.45;59.14;99751.91;5045329;28;20033;-63
2021/05/08 09:30:21;;;;;;;7.18;1.48;;;;;;;18.52;58.75;99749.34;5056937;28;20025;-63
2021/05/08 09:32:57;;;;;;;3.05;1.10;;;;;;;18.58;58.56;99749.94;5050570;28;20143;-63
2021/05/08 09:35:28;;;;;;;6.80;1.30;;;;;;;18.64;58.61;99753.22;5056542;28;20440;-63
2021/05/08 09:38:12;;;;;;;2.08;1.10;;;;;;;18.73;57.75;99751.13;5054961;28;20515;-63
2021/05/08 09:40:38;;;;;;;13.48;2.60;;;;;;;18.69;57.70;99734.47;5054169;28;20045;-63
2021/05/08 09:43:16;;;;;;;7.40;1.23;;;;;;;18.81;57.48;99739.13;5048582;28;20060;-63
2021/05/08 09:45:44;;;;;;;5.43;1.50;;;;;;;18.86;57.30;99746.38;5048021;28;20024;-63
2021/05/08 09:48:32;;;;;;;5.30;1.73;;;;;;;18.92;56.95;99747.78;5056167;28;20473;-63
2021/05/08 09:51:13;;;;;;;3.38;1.40;;;;;;;18.97;56.31;99742.00;5056203;28;20025;-63
2021/05/08 09:53:38;;;;;;;3.63;1.15;;;;;;;18.95;56.39;99741.53;5054048;28;20021;-63
2021/05/08 09:56:04;;;;;;;3.97;1.00;;;;;;;19.07;56.56;99737.13;5048497;28;20082;-63
2021/05/08 09:58:29;;;;;;;4.97;1.30;;;;;;;19.12;56.32;99742.41;5055159;28;20021;-62
2021/05/08 10:00:54;;;;;;;3.40;1.27;;;;;;;19.19;55.83;99737.88;5056800;28;20029;-62
2021/05/08 10:03:23;;;;;;;7.25;1.25;;;;;;;19.25;55.26;99738.44;5049903;28;20056;-62
2021/05/08 10:05:57;;;;;;;3.72;1.17;;;;;;;19.33;55.42;99729.19;5056626;28;20108;-62
2021/05/08 10:08:22;;;;;;;7.75;1.20;;;;;;;19.38;55.58;99730.84;5056314;28;20032;-62
2021/05/08 10:10:48;;;;;;;1.88;1.10;;;;;;;19.46;55.23;99731.84;5056763;28;20021;-62
2021/05/08 10:13:14;;;;;;;3.65;1.33;;;;;;;19.54;54.76;99727.31;5055704;28;20108;-62
2021/05/08 10:15:41;;;;;;;3.50;1.20;;;;;;;19.53;54.25;99720.97;5052872;28;20108;-62
2021/05/08 10:18:16;;;;;;;4.90;1.52;;;;;;;19.67;54.20;99718.56;5040836;28;20047;-62
2021/05/08 10:20:42;;;;;;;6.68;1.27;;;;;;;19.73;54.03;99718.31;5050957;28;20549;-62
2021/05/08 10:23:13;;;;;;;4.97;1.73;;;;;;;19.77;54.00;99708.94;5051080;28;20068;-64
2021/05/08 10:25:40;;;;;;;3.17;1.20;;;;;;;19.82;53.72;99705.91;5056696;28;20025;-59
2021/05/08 10:28:06;;;;;;;8.13;1.60;;;;;;;19.87;53.34;99704.06;5054994;28;20024;-63
2021/05/08 10:30:44;;;;;;;3.10;1.52;;;;;;;19.97;53.05;99690.47;5055967;28;20029;-63
2021/05/08 10:33:12;;;;;;;8.27;2.30;;;;;;;20.03;53.27;99707.63;5053808;28;20028;-63
2021/05/08 10:35:42;;;;;;;4.57;1.08;;;;;;;20.12;52.64;99694.34;5052179;28;20029;-63
2021/05/08 10:38:23;;;;;;;3.10;1.20;;;;;;;20.18;52.17;99692.13;5058104;28;20025;-63
2021/05/08 10:40:52;;;;;;;4.15;1.15;;;;;;;20.21;51.99;99691.41;5046714;28;20128;-63
2021/05/08 10:43:56;;;;;;;3.80;1.30;;;;;;;20.31;51.93;99698.34;5037170;28;20029;-63
2021/05/08 10:46:24;;;;;;;3.85;1.30;;;;;;;20.33;52.03;99678.63;5051780;28;20087;-63
2021/05/08 10:49:12;;;;;;;6.82;2.97;;;;;;;20.45;51.90;99665.41;5055166;28;20032;-63
2021/05/08 10:51:52;;;;;;;9.35;1.33;;;;;;;20.53;52.29;99665.59;5054332;28;20096;-63
2021/05/08 10:54:37;;;;;;;4.05;1.38;;;;;;;20.61;51.78;99659.03;5055741;28;20055;-63
2021/05/08 10:57:26;;;;;;;7.50;2.20;;;;;;;20.68;51.49;99653.63;5056004;28;20021;-64
2021/05/08 11:00:09;;;;;;;5.47;1.33;;;;;;;20.79;51.48;99650.28;5056283;28;20075;-64
2021/05/08 11:02:41;;;;;;;1.90;1.10;;;;;;;20.87;51.49;99647.28;5043100;28;20051;-64
2021/05/08 11:05:22;;;;;;;2.67;1.30;;;;;;;20.95;51.34;99636.34;5055966;28;20775;-63
2021/05/08 11:07:48;;;;;;;5.80;1.48;;;;;;;20.82;50.95;99621.84;5055844;28;20025;-64
2021/05/08 11:10:34;;;;;;;3.70;1.20;;;;;;;21.07;50.50;99634.19;5055945;28;20028;-63
2021/05/08 11:13:16;;;;;;;3.90;1.33;;;;;;;21.07;50.02;99619.56;5056124;28;20067;-64
2021/05/08 11:15:54;;;;;;;6.03;1.67;;;;;;;21.21;49.99;99616.19;5055969;28;20021;-63
2021/05/08 11:18:32;;;;;;;10.45;5.53;;;;;;;21.28;49.80;99616.31;5058561;28;20127;-63
2021/05/08 11:21:03;;;;;;;9.63;4.20;;;;;;;21.32;49.65;99619.97;5055753;28;20104;-63
2021/05/08 11:23:47;;;;;;;5.75;2.08;;;;;;;21.39;49.21;99608.19;5055697;28;20021;-63
2021/05/08 11:26:25;;;;;;;9.68;3.60;;;;;;;21.43;49.40;99602.72;5055807;28;20013;-63
2021/05/08 11:29:02;;;;;;;4.82;1.73;;;;;;;21.49;49.34;99598.44;5055736;28;20059;-64
2021/05/08 11:31:30;;;;;;;3.67;2.00;;;;;;;21.57;49.20;99593.81;5055576;28;20024;-63
2021/05/08 11:34:12;;;;;;;4.47;1.23;;;;;;;21.66;48.55;99591.59;5055669;28;20102;-63